createdAt,value
2023-09-30T00:04:08.557Z,100348.84
2023-09-30T00:09:10.384Z,100355.34
2023-09-30T00:14:12.085Z,100357.72
2023-09-30T00:19:14.696Z,100355.34
2023-09-30T00:24:16.355Z,100363.22
2023-09-30T00:29:19.033Z,100372.13
2023-09-30T00:34:20.678Z,100357.38
2023-09-30T00:39:22.368Z,100362.50
2023-09-30T00:44:23.964Z,100362.31
2023-09-30T00:49:26.297Z,100356.31
2023-09-30T00:54:28.696Z,100360.41
2023-09-30T00:59:33.564Z,100357.81
2023-09-30T01:04:35.291Z,100364.00
2023-09-30T01:09:37.823Z,100365.53
2023-09-30T01:14:39.892Z,100374.78
2023-09-30T01:19:44.052Z,100372.72
2023-09-30T01:24:48.732Z,100380.56
2023-09-30T01:29:51.501Z,100373.03
2023-09-30T01:34:53.097Z,100375.94
2023-09-30T01:39:56.228Z,100381.56
2023-09-30T01:44:59.043Z,100381.56
2023-09-30T01:50:00.699Z,100388.06
2023-09-30T01:55:02.411Z,100389.41
2023-09-30T02:00:06.068Z,100393.50
2023-09-30T02:05:10.785Z,100395.88
2023-09-30T02:10:12.882Z,100396.22
2023-09-30T02:15:15.493Z,100393.47
2023-09-30T02:20:20.357Z,100386.94
2023-09-30T02:25:22.270Z,100397.56
2023-09-30T02:30:24.168Z,100395.63
2023-09-30T02:35:27.225Z,100392.69
2023-09-30T02:40:28.913Z,100398.81
2023-09-30T02:45:30.606Z,100398.09
2023-09-30T02:50:32.341Z,100417.97
2023-09-30T02:55:33.971Z,100417.59
2023-09-30T03:00:37.099Z,100420.41
2023-09-30T03:05:38.855Z,100416.97
2023-09-30T03:10:42.080Z,100419.22
2023-09-30T03:15:43.895Z,100420.25
2023-09-30T03:20:45.512Z,100414.25
2023-09-30T03:25:47.130Z,100425.97
2023-09-30T03:30:48.805Z,100435.22
2023-09-30T03:35:50.502Z,100432.00
2023-09-30T03:40:54.236Z,100437.69
2023-09-30T03:45:56.706Z,100443.50
2023-09-30T03:50:58.744Z,100451.75
2023-09-30T03:56:00.649Z,100457.59
2023-09-30T04:01:02.421Z,100460.28
2023-09-30T04:06:04.305Z,100482.25
2023-09-30T04:11:06.055Z,100473.72
2023-09-30T04:16:08.593Z,100471.31
2023-09-30T04:21:10.308Z,100478.59
2023-09-30T04:26:11.918Z,100480.34
2023-09-30T04:31:14.509Z,100479.50
2023-09-30T04:36:16.373Z,100495.66
2023-09-30T04:41:18.073Z,100503.53
2023-09-30T04:46:21.847Z,100499.59
2023-09-30T04:51:23.618Z,100513.97
2023-09-30T04:56:26.424Z,100518.63
2023-09-30T05:01:29.000Z,100524.94
2023-09-30T05:06:33.897Z,100526.13
2023-09-30T05:11:36.550Z,100546.31
2023-09-30T05:16:38.382Z,100545.81
2023-09-30T05:21:40.150Z,100550.53
2023-09-30T05:26:41.844Z,100557.59
2023-09-30T05:31:43.748Z,100562.94
2023-09-30T05:36:45.475Z,100574.03
2023-09-30T05:41:48.023Z,100589.28
2023-09-30T05:46:49.737Z,100592.03
2023-09-30T05:51:52.030Z,100597.34
2023-09-30T05:56:53.666Z,100591.66
2023-09-30T06:01:55.310Z,100589.44
2023-09-30T06:06:57.783Z,100593.38
2023-09-30T06:12:00.889Z,100610.09
2023-09-30T06:17:03.637Z,100621.88
2023-09-30T06:22:06.047Z,100619.47
2023-09-30T06:27:07.625Z,100637.78
2023-09-30T06:32:09.471Z,100663.56
2023-09-30T06:37:11.390Z,100685.69
2023-09-30T06:42:13.006Z,100688.28
2023-09-30T06:47:14.594Z,100711.16
2023-09-30T06:52:16.267Z,100726.41
2023-09-30T06:57:17.921Z,100731.31
2023-09-30T07:02:19.575Z,100722.13
2023-09-30T07:07:21.161Z,100743.91
2023-09-30T07:12:23.728Z,100741.00
2023-09-30T07:17:25.360Z,100752.19
2023-09-30T07:22:43.593Z,100760.84
2023-09-30T07:27:49.026Z,100781.47
2023-09-30T07:32:51.482Z,100793.38
2023-09-30T07:37:54.423Z,100797.66
2023-09-30T07:42:57.628Z,100808.25
2023-09-30T07:47:59.890Z,100812.06
2023-09-30T07:53:02.052Z,100811.88
2023-09-30T07:58:04.483Z,100810.88
2023-09-30T08:03:07.530Z,100807.94
2023-09-30T08:08:09.760Z,100805.28
2023-09-30T08:13:11.386Z,100822.34
2023-09-30T08:18:13.139Z,100826.19
2023-09-30T08:23:14.895Z,100839.31
2023-09-30T08:28:17.384Z,100841.94
2023-09-30T08:33:19.021Z,100843.47
2023-09-30T08:38:20.713Z,100855.81
2023-09-30T08:43:28.882Z,100872.41
2023-09-30T08:48:33.667Z,100877.03
2023-09-30T08:53:36.422Z,100879.84
2023-09-30T08:58:38.711Z,100859.03
2023-09-30T09:03:40.451Z,100890.84
2023-09-30T09:08:42.358Z,100895.34
2023-09-30T09:13:50.646Z,100904.38
2023-09-30T09:18:52.483Z,100914.25
2023-09-30T09:23:55.228Z,100920.34
2023-09-30T09:29:06.020Z,100921.22
2023-09-30T09:34:15.444Z,100923.59
2023-09-30T09:39:17.815Z,100908.72
2023-09-30T09:44:24.043Z,100917.31
2023-09-30T09:49:26.973Z,100922.72
2023-09-30T09:54:30.515Z,100926.03
2023-09-30T09:59:33.502Z,100933.03
2023-09-30T10:04:35.201Z,100931.75
2023-09-30T10:09:37.350Z,100935.41
2023-09-30T10:14:39.145Z,100917.53
2023-09-30T10:20:10.894Z,100915.63
2023-09-30T10:25:37.305Z,100921.50
2023-09-30T10:30:39.088Z,100923.47
2023-09-30T10:35:40.702Z,100924.22
2023-09-30T10:40:42.382Z,100930.94
2023-09-30T10:45:46.066Z,100928.22
2023-09-30T10:50:52.147Z,100933.78
2023-09-30T10:56:01.453Z,100929.25
2023-09-30T11:01:03.652Z,100938.78
2023-09-30T11:11:09.944Z,100949.88
2023-09-30T11:16:11.827Z,100950.22
2023-09-30T11:21:14.663Z,100950.22
2023-09-30T11:26:16.439Z,100943.22
2023-09-30T11:31:19.420Z,100936.13
2023-09-30T11:36:22.990Z,100934.34
2023-09-30T11:41:34.555Z,100944.31
2023-09-30T11:46:56.914Z,100930.00
2023-09-30T11:52:01.686Z,100935.81
2023-09-30T11:57:04.532Z,100947.88
2023-09-30T12:02:15.116Z,100935.47
2023-09-30T12:07:17.155Z,100950.94
2023-09-30T12:12:19.104Z,100939.63
2023-09-30T12:17:22.597Z,100938.28
2023-09-30T12:22:24.268Z,100948.50
2023-09-30T12:27:26.069Z,100943.13
2023-09-30T12:32:28.008Z,100940.88
2023-09-30T12:37:30.438Z,100945.53
2023-09-30T12:42:32.105Z,100940.59
2023-09-30T12:47:33.771Z,100944.28
2023-09-30T12:52:35.902Z,100953.69
2023-09-30T12:57:37.950Z,100945.47
2023-09-30T13:02:39.799Z,100940.16
2023-09-30T13:07:41.499Z,100943.47
2023-09-30T13:12:43.172Z,100927.56
2023-09-30T13:17:45.096Z,100931.28
2023-09-30T13:22:46.908Z,100939.50
2023-09-30T13:27:48.552Z,100941.59
2023-09-30T13:32:50.585Z,100938.13
2023-09-30T13:37:52.421Z,100932.50
2023-09-30T13:42:54.151Z,100942.06
2023-09-30T13:47:55.824Z,100949.75
2023-09-30T13:52:58.145Z,100948.69
2023-09-30T13:57:59.822Z,100949.81
2023-09-30T14:03:01.787Z,100942.06
2023-09-30T14:08:04.777Z,100945.13
2023-09-30T14:13:06.585Z,100949.66
2023-09-30T14:18:09.174Z,100944.41
2023-09-30T14:23:11.015Z,100935.50
2023-09-30T14:28:12.760Z,100944.88
2023-09-30T14:33:14.698Z,100933.47
2023-09-30T14:38:16.311Z,100944.41
2023-09-30T14:43:17.917Z,100936.78
2023-09-30T14:48:19.527Z,100929.00
2023-09-30T14:53:21.197Z,100944.41
2023-09-30T14:58:22.839Z,100947.97
2023-09-30T15:03:24.509Z,100937.16
2023-09-30T15:08:26.157Z,100947.94
2023-09-30T15:13:28.252Z,100928.41
2023-09-30T15:18:30.055Z,100941.38
2023-09-30T15:23:33.530Z,100950.47
2023-09-30T15:28:35.661Z,100948.72
2023-09-30T15:33:37.855Z,100940.28
2023-09-30T15:38:39.501Z,100954.91
2023-09-30T15:43:41.372Z,100972.81
2023-09-30T15:48:43.018Z,100962.56
2023-09-30T15:53:45.677Z,100968.81
2023-09-30T15:58:47.273Z,100971.78
2023-09-30T16:03:48.985Z,100968.72
2023-09-30T16:08:50.762Z,100975.81
2023-09-30T16:13:53.099Z,100974.84
2023-09-30T16:18:54.779Z,100987.91
2023-09-30T16:23:56.654Z,100993.09
2023-09-30T16:28:59.769Z,101005.47
2023-09-30T16:34:03.116Z,100994.78
2023-09-30T16:39:04.771Z,100996.63
2023-09-30T16:44:06.863Z,101001.22
2023-09-30T16:49:10.178Z,100995.50
2023-09-30T16:54:11.877Z,100993.06
2023-09-30T16:59:14.966Z,100980.88
2023-09-30T17:04:16.986Z,100996.09
2023-09-30T17:09:18.749Z,100996.09
2023-09-30T17:14:20.356Z,100993.38
2023-09-30T17:19:23.618Z,101002.69
2023-09-30T17:24:25.322Z,101008.72
2023-09-30T17:29:27.052Z,101010.88
2023-09-30T17:34:28.666Z,101016.75
2023-09-30T17:39:30.860Z,101013.91
2023-09-30T17:44:32.448Z,101018.19
2023-09-30T17:49:34.046Z,101024.34
2023-09-30T17:54:35.696Z,101037.41
2023-09-30T17:59:37.851Z,101029.34
2023-09-30T18:04:43.183Z,101038.53
2023-09-30T18:09:45.015Z,101038.63
2023-09-30T18:14:46.699Z,101043.91
2023-09-30T18:19:48.712Z,101048.78
2023-09-30T18:24:50.721Z,101052.16
2023-09-30T18:29:52.381Z,101052.28
2023-09-30T18:34:55.024Z,101049.06
2023-09-30T18:39:56.745Z,101047.41
2023-09-30T18:44:58.433Z,101048.38
2023-09-30T18:50:00.059Z,101045.06
2023-09-30T18:55:03.346Z,101046.84
2023-09-30T19:00:06.802Z,101050.09
2023-09-30T19:05:09.569Z,101056.34
2023-09-30T19:10:11.485Z,101051.41
2023-09-30T19:15:13.667Z,101057.41
2023-09-30T19:20:16.097Z,101063.19
2023-09-30T19:25:18.102Z,101057.75
2023-09-30T19:30:20.424Z,101058.00
2023-09-30T19:35:23.597Z,101067.69
2023-09-30T19:40:25.216Z,101055.84
2023-09-30T19:45:27.547Z,101060.81
2023-09-30T19:50:30.159Z,101068.00
2023-09-30T19:55:31.813Z,101077.38
2023-09-30T20:00:40.385Z,101084.19
2023-09-30T20:05:42.079Z,101074.47
2023-09-30T20:10:43.767Z,101079.66
2023-09-30T20:15:45.451Z,101086.34
2023-09-30T20:20:47.097Z,101082.16
2023-09-30T20:25:48.724Z,101073.25
2023-09-30T20:35:53.300Z,101062.66
2023-09-30T20:40:54.978Z,101060.91
2023-09-30T20:45:56.635Z,101053.75
2023-09-30T20:50:58.278Z,101061.38
2023-09-30T20:56:00.816Z,101068.44
2023-09-30T21:01:12.388Z,101072.69
2023-09-30T21:06:14.424Z,101071.22
2023-09-30T21:11:16.008Z,101071.22
2023-09-30T21:16:17.760Z,101074.69
2023-09-30T21:21:22.756Z,101074.44
2023-09-30T21:26:24.417Z,101080.13
2023-09-30T21:31:29.758Z,101080.00
2023-09-30T21:36:33.040Z,101073.19
2023-09-30T21:41:35.846Z,101072.19
2023-09-30T21:46:38.035Z,101075.91
2023-09-30T21:51:39.759Z,101074.28
2023-09-30T21:56:42.023Z,101073.41
2023-09-30T22:01:44.613Z,101071.91
2023-09-30T22:06:47.824Z,101073.50
2023-09-30T22:11:52.153Z,101063.50
2023-09-30T22:16:53.836Z,101072.41
2023-09-30T22:21:55.548Z,101078.06
2023-09-30T22:26:57.274Z,101068.44
2023-09-30T22:31:59.144Z,101061.53
2023-09-30T22:37:00.820Z,101065.47
2023-09-30T22:42:02.433Z,101067.56
2023-09-30T22:47:04.153Z,101064.44
2023-09-30T22:52:05.880Z,101065.16
2023-09-30T22:57:07.505Z,101069.81
2023-09-30T23:02:09.224Z,101072.16
2023-09-30T23:07:12.956Z,101074.38
2023-09-30T23:12:16.466Z,101066.09
2023-09-30T23:17:18.186Z,101056.94
2023-09-30T23:22:19.895Z,101057.91
2023-09-30T23:27:21.921Z,101063.31
2023-09-30T23:32:26.046Z,101073.53
2023-09-30T23:37:27.684Z,101068.09
2023-09-30T23:42:29.320Z,101071.66
2023-09-30T23:47:44.869Z,101067.19
2023-09-30T23:52:59.026Z,101079.03
2023-09-30T23:58:02.805Z,101064.44
